sensor_id;sensor_type;location;lat;lon;timestamp;temperature;humidity
27114;DHT22;14648;49.730;8.614;2023-07-20T00:01:23;21.30;53.70
27114;DHT22;14648;49.730;8.614;2023-07-20T00:03:49;21.30;53.80
27114;DHT22;14648;49.730;8.614;2023-07-20T00:06:21;21.30;53.90
27114;DHT22;14648;49.730;8.614;2023-07-20T00:08:54;21.30;53.90
27114;DHT22;14648;49.730;8.614;2023-07-20T00:11:20;21.20;53.80
27114;DHT22;14648;49.730;8.614;2023-07-20T00:13:47;21.20;54.00
27114;DHT22;14648;49.730;8.614;2023-07-20T00:16:13;21.20;54.00
27114;DHT22;14648;49.730;8.614;2023-07-20T00:18:38;21.20;54.10
27114;DHT22;14648;49.730;8.614;2023-07-20T00:21:06;21.10;54.10
27114;DHT22;14648;49.730;8.614;2023-07-20T00:23:32;21.10;54.20
27114;DHT22;14648;49.730;8.614;2023-07-20T00:25:58;21.10;54.20
27114;DHT22;14648;49.730;8.614;2023-07-20T00:28:23;21.00;54.00
27114;DHT22;14648;49.730;8.614;2023-07-20T00:30:49;21.00;54.20
27114;DHT22;14648;49.730;8.614;2023-07-20T00:33:17;21.00;54.20
27114;DHT22;14648;49.730;8.614;2023-07-20T00:35:43;20.90;54.40
27114;DHT22;14648;49.730;8.614;2023-07-20T00:38:09;20.90;54.40
27114;DHT22;14648;49.730;8.614;2023-07-20T00:40:36;20.90;54.40
27114;DHT22;14648;49.730;8.614;2023-07-20T00:43:05;20.80;54.30
27114;DHT22;14648;49.730;8.614;2023-07-20T00:45:31;20.80;54.30
27114;DHT22;14648;49.730;8.614;2023-07-20T00:47:58;20.80;54.30
27114;DHT22;14648;49.730;8.614;2023-07-20T00:50:26;20.80;54.30
27114;DHT22;14648;49.730;8.614;2023-07-20T00:52:55;20.80;54.10
27114;DHT22;14648;49.730;8.614;2023-07-20T00:55:23;20.70;54.30
27114;DHT22;14648;49.730;8.614;2023-07-20T00:57:50;20.70;54.30
27114;DHT22;14648;49.730;8.614;2023-07-20T01:00:17;20.70;54.40
27114;DHT22;14648;49.730;8.614;2023-07-20T01:02:43;20.70;54.30
27114;DHT22;14648;49.730;8.614;2023-07-20T01:05:13;20.60;54.30
27114;DHT22;14648;49.730;8.614;2023-07-20T01:07:51;20.60;54.40
27114;DHT22;14648;49.730;8.614;2023-07-20T01:13:00;20.40;54.30
27114;DHT22;14648;49.730;8.614;2023-07-20T01:15:27;20.40;54.30
27114;DHT22;14648;49.730;8.614;2023-07-20T01:17:53;20.40;54.20
27114;DHT22;14648;49.730;8.614;2023-07-20T01:20:20;20.40;54.20
27114;DHT22;14648;49.730;8.614;2023-07-20T01:31:36;20.20;53.80
27114;DHT22;14648;49.730;8.614;2023-07-20T01:34:03;20.10;54.00
27114;DHT22;14648;49.730;8.614;2023-07-20T01:36:35;20.10;53.90
27114;DHT22;14648;49.730;8.614;2023-07-20T01:39:02;20.00;54.10
27114;DHT22;14648;49.730;8.614;2023-07-20T01:41:28;19.90;54.20
27114;DHT22;14648;49.730;8.614;2023-07-20T01:43:57;19.90;54.20
27114;DHT22;14648;49.730;8.614;2023-07-20T01:46:24;19.90;54.10
27114;DHT22;14648;49.730;8.614;2023-07-20T01:48:50;19.90;54.10
27114;DHT22;14648;49.730;8.614;2023-07-20T01:51:16;19.80;54.00
27114;DHT22;14648;49.730;8.614;2023-07-20T01:53:43;19.70;54.10
27114;DHT22;14648;49.730;8.614;2023-07-20T01:56:09;19.70;54.10
27114;DHT22;14648;49.730;8.614;2023-07-20T01:58:34;19.60;54.10
27114;DHT22;14648;49.730;8.614;2023-07-20T02:01:01;19.60;54.10
27114;DHT22;14648;49.730;8.614;2023-07-20T02:03:27;19.50;54.20
27114;DHT22;14648;49.730;8.614;2023-07-20T02:05:53;19.50;54.10
27114;DHT22;14648;49.730;8.614;2023-07-20T02:08:18;19.50;54.90
27114;DHT22;14648;49.730;8.614;2023-07-20T02:10:48;19.50;54.10
27114;DHT22;14648;49.730;8.614;2023-07-20T02:13:14;19.40;54.00
27114;DHT22;14648;49.730;8.614;2023-07-20T02:15:41;19.40;54.10
27114;DHT22;14648;49.730;8.614;2023-07-20T02:18:08;19.30;54.20
27114;DHT22;14648;49.730;8.614;2023-07-20T02:20:34;19.20;54.80
27114;DHT22;14648;49.730;8.614;2023-07-20T02:23:00;19.20;54.30
27114;DHT22;14648;49.730;8.614;2023-07-20T02:25:29;19.10;54.40
27114;DHT22;14648;49.730;8.614;2023-07-20T02:27:56;19.10;54.40
27114;DHT22;14648;49.730;8.614;2023-07-20T02:30:22;19.00;54.40
27114;DHT22;14648;49.730;8.614;2023-07-20T02:32:47;19.00;54.50
27114;DHT22;14648;49.730;8.614;2023-07-20T02:35:14;19.00;54.40
27114;DHT22;14648;49.730;8.614;2023-07-20T02:37:40;19.00;54.40
27114;DHT22;14648;49.730;8.614;2023-07-20T02:40:06;19.00;54.40
27114;DHT22;14648;49.730;8.614;2023-07-20T02:42:33;19.00;54.50
27114;DHT22;14648;49.730;8.614;2023-07-20T02:44:59;19.00;54.50
27114;DHT22;14648;49.730;8.614;2023-07-20T02:47:24;18.90;54.60
27114;DHT22;14648;49.730;8.614;2023-07-20T02:49:50;18.90;54.60
27114;DHT22;14648;49.730;8.614;2023-07-20T02:52:16;18.90;54.70
27114;DHT22;14648;49.730;8.614;2023-07-20T02:54:41;18.90;54.70
27114;DHT22;14648;49.730;8.614;2023-07-20T02:57:07;18.90;54.80
27114;DHT22;14648;49.730;8.614;2023-07-20T02:59:33;18.90;54.70
27114;DHT22;14648;49.730;8.614;2023-07-20T03:01:58;18.80;54.60
27114;DHT22;14648;49.730;8.614;2023-07-20T03:04:27;18.80;54.60
27114;DHT22;14648;49.730;8.614;2023-07-20T03:06:53;18.80;54.70
27114;DHT22;14648;49.730;8.614;2023-07-20T03:09:19;18.80;54.70
27114;DHT22;14648;49.730;8.614;2023-07-20T03:11:44;18.80;54.80
27114;DHT22;14648;49.730;8.614;2023-07-20T03:14:10;18.80;54.80
27114;DHT22;14648;49.730;8.614;2023-07-20T03:16:36;18.80;54.90
27114;DHT22;14648;49.730;8.614;2023-07-20T03:19:02;18.80;54.90
27114;DHT22;14648;49.730;8.614;2023-07-20T03:21:28;18.80;55.00
27114;DHT22;14648;49.730;8.614;2023-07-20T03:23:54;18.70;55.00
27114;DHT22;14648;49.730;8.614;2023-07-20T03:26:20;18.80;55.10
27114;DHT22;14648;49.730;8.614;2023-07-20T03:28:46;18.80;55.00
27114;DHT22;14648;49.730;8.614;2023-07-20T03:31:11;18.70;55.00
27114;DHT22;14648;49.730;8.614;2023-07-20T03:33:37;18.70;55.80
27114;DHT22;14648;49.730;8.614;2023-07-20T03:36:03;18.60;55.10
27114;DHT22;14648;49.730;8.614;2023-07-20T03:38:29;18.60;55.20
27114;DHT22;14648;49.730;8.614;2023-07-20T03:40:57;18.60;55.30
27114;DHT22;14648;49.730;8.614;2023-07-20T03:43:25;18.60;55.40
27114;DHT22;14648;49.730;8.614;2023-07-20T03:45:51;18.60;55.40
27114;DHT22;14648;49.730;8.614;2023-07-20T03:48:19;18.60;55.30
27114;DHT22;14648;49.730;8.614;2023-07-20T03:50:48;18.60;55.40
27114;DHT22;14648;49.730;8.614;2023-07-20T03:53:15;18.60;55.50
27114;DHT22;14648;49.730;8.614;2023-07-20T03:55:45;18.60;55.50
27114;DHT22;14648;49.730;8.614;2023-07-20T03:58:14;18.60;55.60
27114;DHT22;14648;49.730;8.614;2023-07-20T04:00:47;18.60;55.50
27114;DHT22;14648;49.730;8.614;2023-07-20T04:03:16;18.60;55.70
27114;DHT22;14648;49.730;8.614;2023-07-20T04:05:43;18.50;55.70
27114;DHT22;14648;49.730;8.614;2023-07-20T04:08:10;18.50;55.70
27114;DHT22;14648;49.730;8.614;2023-07-20T04:10:37;18.50;55.80
27114;DHT22;14648;49.730;8.614;2023-07-20T04:13:04;18.50;55.80
27114;DHT22;14648;49.730;8.614;2023-07-20T04:15:30;18.50;55.90
27114;DHT22;14648;49.730;8.614;2023-07-20T04:17:56;18.50;55.90
27114;DHT22;14648;49.730;8.614;2023-07-20T04:20:25;18.50;55.90
27114;DHT22;14648;49.730;8.614;2023-07-20T04:22:51;18.50;56.10
27114;DHT22;14648;49.730;8.614;2023-07-20T04:25:20;18.50;56.10
27114;DHT22;14648;49.730;8.614;2023-07-20T04:27:46;18.50;56.10
27114;DHT22;14648;49.730;8.614;2023-07-20T04:30:12;18.40;56.10
27114;DHT22;14648;49.730;8.614;2023-07-20T04:32:38;18.40;56.90
27114;DHT22;14648;49.730;8.614;2023-07-20T04:35:11;18.40;56.20
27114;DHT22;14648;49.730;8.614;2023-07-20T04:37:41;18.40;56.20
27114;DHT22;14648;49.730;8.614;2023-07-20T04:40:12;18.40;56.20
27114;DHT22;14648;49.730;8.614;2023-07-20T04:42:40;18.40;56.00
27114;DHT22;14648;49.730;8.614;2023-07-20T04:45:06;18.40;56.00
27114;DHT22;14648;49.730;8.614;2023-07-20T04:47:33;18.40;56.00
27114;DHT22;14648;49.730;8.614;2023-07-20T04:49:58;18.40;56.00
27114;DHT22;14648;49.730;8.614;2023-07-20T04:52:24;18.40;55.90
27114;DHT22;14648;49.730;8.614;2023-07-20T04:54:50;18.40;56.00
27114;DHT22;14648;49.730;8.614;2023-07-20T04:57:18;18.40;55.80
27114;DHT22;14648;49.730;8.614;2023-07-20T04:59:43;18.40;55.80
27114;DHT22;14648;49.730;8.614;2023-07-20T05:02:09;18.40;55.80
27114;DHT22;14648;49.730;8.614;2023-07-20T05:04:35;18.40;55.70
27114;DHT22;14648;49.730;8.614;2023-07-20T05:07:00;18.40;55.60
27114;DHT22;14648;49.730;8.614;2023-07-20T05:09:26;18.40;55.50
27114;DHT22;14648;49.730;8.614;2023-07-20T05:11:52;18.40;55.60
27114;DHT22;14648;49.730;8.614;2023-07-20T05:14:17;18.40;55.60
27114;DHT22;14648;49.730;8.614;2023-07-20T05:16:43;18.40;55.60
27114;DHT22;14648;49.730;8.614;2023-07-20T05:19:09;18.50;55.70
27114;DHT22;14648;49.730;8.614;2023-07-20T05:21:34;18.50;55.70
27114;DHT22;14648;49.730;8.614;2023-07-20T05:24:00;18.50;55.60
27114;DHT22;14648;49.730;8.614;2023-07-20T05:26:26;18.50;55.60
27114;DHT22;14648;49.730;8.614;2023-07-20T05:28:51;18.60;55.50
27114;DHT22;14648;49.730;8.614;2023-07-20T05:31:17;18.50;55.50
27114;DHT22;14648;49.730;8.614;2023-07-20T05:33:43;18.50;55.50
27114;DHT22;14648;49.730;8.614;2023-07-20T05:36:09;18.60;55.40
27114;DHT22;14648;49.730;8.614;2023-07-20T05:38:35;18.60;55.20
27114;DHT22;14648;49.730;8.614;2023-07-20T05:41:00;18.60;55.20
27114;DHT22;14648;49.730;8.614;2023-07-20T05:43:27;18.60;55.10
27114;DHT22;14648;49.730;8.614;2023-07-20T05:45:53;18.60;55.00
27114;DHT22;14648;49.730;8.614;2023-07-20T05:48:18;18.60;55.10
27114;DHT22;14648;49.730;8.614;2023-07-20T05:50:44;18.60;55.00
27114;DHT22;14648;49.730;8.614;2023-07-20T05:53:12;18.70;55.20
27114;DHT22;14648;49.730;8.614;2023-07-20T05:55:38;18.70;55.00
27114;DHT22;14648;49.730;8.614;2023-07-20T05:58:05;18.70;55.00
27114;DHT22;14648;49.730;8.614;2023-07-20T06:00:31;18.80;55.00
27114;DHT22;14648;49.730;8.614;2023-07-20T06:02:57;18.80;54.90
27114;DHT22;14648;49.730;8.614;2023-07-20T06:05:23;18.80;54.90
27114;DHT22;14648;49.730;8.614;2023-07-20T06:07:49;18.80;54.80
27114;DHT22;14648;49.730;8.614;2023-07-20T06:10:15;18.80;54.90
27114;DHT22;14648;49.730;8.614;2023-07-20T06:12:41;18.90;55.00
27114;DHT22;14648;49.730;8.614;2023-07-20T06:15:28;18.90;55.00
27114;DHT22;14648;49.730;8.614;2023-07-20T06:17:56;18.90;55.00
27114;DHT22;14648;49.730;8.614;2023-07-20T06:20:23;19.00;54.90
27114;DHT22;14648;49.730;8.614;2023-07-20T06:22:49;19.00;54.90
27114;DHT22;14648;49.730;8.614;2023-07-20T06:25:15;19.00;54.90
27114;DHT22;14648;49.730;8.614;2023-07-20T06:27:42;19.10;54.90
27114;DHT22;14648;49.730;8.614;2023-07-20T06:30:08;19.10;54.80
27114;DHT22;14648;49.730;8.614;2023-07-20T06:32:35;19.20;54.80
27114;DHT22;14648;49.730;8.614;2023-07-20T06:35:01;19.30;54.90
27114;DHT22;14648;49.730;8.614;2023-07-20T06:37:29;19.30;54.80
27114;DHT22;14648;49.730;8.614;2023-07-20T06:39:55;19.30;54.70
27114;DHT22;14648;49.730;8.614;2023-07-20T06:42:20;19.40;54.60
27114;DHT22;14648;49.730;8.614;2023-07-20T06:44:46;19.40;54.60
27114;DHT22;14648;49.730;8.614;2023-07-20T06:47:14;19.50;54.60
27114;DHT22;14648;49.730;8.614;2023-07-20T06:49:40;19.60;54.40
27114;DHT22;14648;49.730;8.614;2023-07-20T06:52:06;19.60;54.30
27114;DHT22;14648;49.730;8.614;2023-07-20T06:54:32;19.70;54.40
27114;DHT22;14648;49.730;8.614;2023-07-20T06:56:58;19.80;54.20
27114;DHT22;14648;49.730;8.614;2023-07-20T06:59:25;19.90;54.30
27114;DHT22;14648;49.730;8.614;2023-07-20T07:01:50;20.00;54.20
27114;DHT22;14648;49.730;8.614;2023-07-20T07:04:16;20.10;54.00
27114;DHT22;14648;49.730;8.614;2023-07-20T07:06:42;20.20;54.00
27114;DHT22;14648;49.730;8.614;2023-07-20T07:09:08;20.40;54.10
27114;DHT22;14648;49.730;8.614;2023-07-20T07:11:34;20.50;53.90
27114;DHT22;14648;49.730;8.614;2023-07-20T07:13:59;20.60;53.50
27114;DHT22;14648;49.730;8.614;2023-07-20T07:16:25;20.60;53.30
27114;DHT22;14648;49.730;8.614;2023-07-20T07:18:51;20.70;53.20
27114;DHT22;14648;49.730;8.614;2023-07-20T07:21:17;20.70;53.30
27114;DHT22;14648;49.730;8.614;2023-07-20T07:23:43;20.80;53.40
27114;DHT22;14648;49.730;8.614;2023-07-20T07:26:09;20.90;53.00
27114;DHT22;14648;49.730;8.614;2023-07-20T07:28:37;21.00;53.00
27114;DHT22;14648;49.730;8.614;2023-07-20T07:31:06;21.00;53.00
27114;DHT22;14648;49.730;8.614;2023-07-20T07:33:32;21.00;52.80
27114;DHT22;14648;49.730;8.614;2023-07-20T07:35:58;21.00;53.00
27114;DHT22;14648;49.730;8.614;2023-07-20T07:38:24;21.00;52.90
27114;DHT22;14648;49.730;8.614;2023-07-20T07:40:49;21.00;52.80
27114;DHT22;14648;49.730;8.614;2023-07-20T07:43:15;21.00;52.80
27114;DHT22;14648;49.730;8.614;2023-07-20T07:45:41;21.00;52.80
27114;DHT22;14648;49.730;8.614;2023-07-20T07:48:07;21.10;53.60
27114;DHT22;14648;49.730;8.614;2023-07-20T07:50:33;21.10;53.40
27114;DHT22;14648;49.730;8.614;2023-07-20T07:52:59;21.20;52.50
27114;DHT22;14648;49.730;8.614;2023-07-20T07:55:25;21.20;52.40
27114;DHT22;14648;49.730;8.614;2023-07-20T07:57:54;21.20;52.50
27114;DHT22;14648;49.730;8.614;2023-07-20T08:00:20;21.20;52.20
27114;DHT22;14648;49.730;8.614;2023-07-20T08:02:46;21.30;52.20
27114;DHT22;14648;49.730;8.614;2023-07-20T08:05:13;21.40;51.90
27114;DHT22;14648;49.730;8.614;2023-07-20T08:07:39;21.40;51.80
27114;DHT22;14648;49.730;8.614;2023-07-20T08:10:06;21.50;51.80
27114;DHT22;14648;49.730;8.614;2023-07-20T08:12:32;21.50;51.60
27114;DHT22;14648;49.730;8.614;2023-07-20T08:14:58;21.70;52.30
27114;DHT22;14648;49.730;8.614;2023-07-20T08:17:24;21.90;51.80
27114;DHT22;14648;49.730;8.614;2023-07-20T08:19:50;22.00;51.60
27114;DHT22;14648;49.730;8.614;2023-07-20T08:22:15;22.10;51.70
27114;DHT22;14648;49.730;8.614;2023-07-20T08:24:42;22.30;51.60
27114;DHT22;14648;49.730;8.614;2023-07-20T08:27:08;22.30;51.10
27114;DHT22;14648;49.730;8.614;2023-07-20T08:29:37;22.40;50.80
27114;DHT22;14648;49.730;8.614;2023-07-20T08:32:04;22.50;51.20
27114;DHT22;14648;49.730;8.614;2023-07-20T08:34:30;22.60;50.90
27114;DHT22;14648;49.730;8.614;2023-07-20T08:36:57;22.70;51.00
27114;DHT22;14648;49.730;8.614;2023-07-20T08:39:23;22.70;50.50
27114;DHT22;14648;49.730;8.614;2023-07-20T08:41:50;22.80;50.20
27114;DHT22;14648;49.730;8.614;2023-07-20T08:44:17;22.90;49.80
27114;DHT22;14648;49.730;8.614;2023-07-20T08:46:44;22.90;49.70
27114;DHT22;14648;49.730;8.614;2023-07-20T08:49:11;23.00;49.50
27114;DHT22;14648;49.730;8.614;2023-07-20T08:51:37;23.10;49.20
27114;DHT22;14648;49.730;8.614;2023-07-20T08:54:04;23.10;49.60
27114;DHT22;14648;49.730;8.614;2023-07-20T08:56:33;23.20;49.30
27114;DHT22;14648;49.730;8.614;2023-07-20T08:59:00;23.30;49.30
27114;DHT22;14648;49.730;8.614;2023-07-20T09:01:28;23.40;49.20
27114;DHT22;14648;49.730;8.614;2023-07-20T09:03:54;23.50;48.60
27114;DHT22;14648;49.730;8.614;2023-07-20T09:06:20;23.50;48.50
27114;DHT22;14648;49.730;8.614;2023-07-20T09:08:46;23.50;48.80
27114;DHT22;14648;49.730;8.614;2023-07-20T09:11:12;23.60;48.40
27114;DHT22;14648;49.730;8.614;2023-07-20T09:13:39;23.70;48.40
27114;DHT22;14648;49.730;8.614;2023-07-20T09:16:04;23.70;47.60
27114;DHT22;14648;49.730;8.614;2023-07-20T09:18:31;23.80;48.00
27114;DHT22;14648;49.730;8.614;2023-07-20T09:21:05;23.90;47.50
27114;DHT22;14648;49.730;8.614;2023-07-20T09:23:37;24.00;47.50
27114;DHT22;14648;49.730;8.614;2023-07-20T09:26:13;24.10;47.40
27114;DHT22;14648;49.730;8.614;2023-07-20T09:28:56;24.30;47.20
27114;DHT22;14648;49.730;8.614;2023-07-20T09:31:23;24.50;46.70
27114;DHT22;14648;49.730;8.614;2023-07-20T09:33:49;24.60;46.40
27114;DHT22;14648;49.730;8.614;2023-07-20T09:36:17;24.70;46.10
27114;DHT22;14648;49.730;8.614;2023-07-20T09:38:43;24.70;45.90
27114;DHT22;14648;49.730;8.614;2023-07-20T09:41:13;24.60;45.70
27114;DHT22;14648;49.730;8.614;2023-07-20T09:43:41;24.50;45.30
27114;DHT22;14648;49.730;8.614;2023-07-20T09:46:07;24.40;45.30
27114;DHT22;14648;49.730;8.614;2023-07-20T09:48:32;24.40;45.40
27114;DHT22;14648;49.730;8.614;2023-07-20T09:50:58;24.50;45.50
27114;DHT22;14648;49.730;8.614;2023-07-20T09:53:25;24.60;45.30
27114;DHT22;14648;49.730;8.614;2023-07-20T09:55:52;24.70;45.20
27114;DHT22;14648;49.730;8.614;2023-07-20T09:58:19;24.90;44.70
27114;DHT22;14648;49.730;8.614;2023-07-20T10:00:46;25.00;44.50
27114;DHT22;14648;49.730;8.614;2023-07-20T10:03:20;25.10;43.90
27114;DHT22;14648;49.730;8.614;2023-07-20T10:05:54;25.20;43.10
27114;DHT22;14648;49.730;8.614;2023-07-20T10:08:25;25.20;42.80
27114;DHT22;14648;49.730;8.614;2023-07-20T10:10:51;25.30;42.60
27114;DHT22;14648;49.730;8.614;2023-07-20T10:13:26;25.30;42.70
27114;DHT22;14648;49.730;8.614;2023-07-20T10:16:02;25.30;42.10
27114;DHT22;14648;49.730;8.614;2023-07-20T10:18:51;25.20;41.90
27114;DHT22;14648;49.730;8.614;2023-07-20T10:21:17;25.10;42.40
27114;DHT22;14648;49.730;8.614;2023-07-20T10:23:45;25.10;42.10
27114;DHT22;14648;49.730;8.614;2023-07-20T10:26:11;25.00;42.30
27114;DHT22;14648;49.730;8.614;2023-07-20T10:28:38;25.00;42.20
27114;DHT22;14648;49.730;8.614;2023-07-20T10:31:08;25.10;42.20
27114;DHT22;14648;49.730;8.614;2023-07-20T10:33:36;25.30;42.20
27114;DHT22;14648;49.730;8.614;2023-07-20T10:36:04;25.50;42.70
27114;DHT22;14648;49.730;8.614;2023-07-20T10:41:20;25.60;41.00
27114;DHT22;14648;49.730;8.614;2023-07-20T10:43:46;25.70;41.30
27114;DHT22;14648;49.730;8.614;2023-07-20T10:46:13;25.60;41.70
27114;DHT22;14648;49.730;8.614;2023-07-20T10:49:01;25.50;41.60
27114;DHT22;14648;49.730;8.614;2023-07-20T10:51:28;25.50;41.70
27114;DHT22;14648;49.730;8.614;2023-07-20T10:53:57;25.40;41.80
27114;DHT22;14648;49.730;8.614;2023-07-20T10:56:26;25.40;41.00
27114;DHT22;14648;49.730;8.614;2023-07-20T10:58:59;25.50;40.90
27114;DHT22;14648;49.730;8.614;2023-07-20T11:01:30;25.60;40.70
27114;DHT22;14648;49.730;8.614;2023-07-20T11:04:00;25.60;40.30
27114;DHT22;14648;49.730;8.614;2023-07-20T11:06:30;25.70;40.20
27114;DHT22;14648;49.730;8.614;2023-07-20T11:09:11;25.60;39.80
27114;DHT22;14648;49.730;8.614;2023-07-20T11:11:48;25.60;39.40
27114;DHT22;14648;49.730;8.614;2023-07-20T11:14:21;25.50;39.50
27114;DHT22;14648;49.730;8.614;2023-07-20T11:16:49;25.40;39.60
27114;DHT22;14648;49.730;8.614;2023-07-20T11:19:18;25.40;39.50
27114;DHT22;14648;49.730;8.614;2023-07-20T11:21:52;25.30;39.70
27114;DHT22;14648;49.730;8.614;2023-07-20T11:24:19;25.30;39.80
27114;DHT22;14648;49.730;8.614;2023-07-20T11:26:52;25.30;39.90
27114;DHT22;14648;49.730;8.614;2023-07-20T11:29:21;25.20;39.70
27114;DHT22;14648;49.730;8.614;2023-07-20T11:31:49;25.30;39.60
27114;DHT22;14648;49.730;8.614;2023-07-20T11:34:17;25.30;39.70
27114;DHT22;14648;49.730;8.614;2023-07-20T11:36:47;25.40;39.60
27114;DHT22;14648;49.730;8.614;2023-07-20T11:39:16;25.50;39.60
27114;DHT22;14648;49.730;8.614;2023-07-20T11:41:55;25.40;39.70
27114;DHT22;14648;49.730;8.614;2023-07-20T11:44:23;25.40;39.40
27114;DHT22;14648;49.730;8.614;2023-07-20T11:47:05;25.30;39.50
27114;DHT22;14648;49.730;8.614;2023-07-20T11:49:36;25.30;39.70
27114;DHT22;14648;49.730;8.614;2023-07-20T11:52:07;25.20;40.10
27114;DHT22;14648;49.730;8.614;2023-07-20T11:54:35;25.10;40.20
27114;DHT22;14648;49.730;8.614;2023-07-20T11:57:04;25.10;40.80
27114;DHT22;14648;49.730;8.614;2023-07-20T11:59:31;25.00;39.60
27114;DHT22;14648;49.730;8.614;2023-07-20T12:02:03;25.00;40.00
27114;DHT22;14648;49.730;8.614;2023-07-20T12:04:31;25.10;40.00
27114;DHT22;14648;49.730;8.614;2023-07-20T12:06:58;25.30;40.10
27114;DHT22;14648;49.730;8.614;2023-07-20T12:09:24;25.50;39.60
27114;DHT22;14648;49.730;8.614;2023-07-20T12:11:50;25.70;39.70
27114;DHT22;14648;49.730;8.614;2023-07-20T12:14:16;25.90;39.30
27114;DHT22;14648;49.730;8.614;2023-07-20T12:16:42;26.10;39.40
27114;DHT22;14648;49.730;8.614;2023-07-20T12:19:13;26.10;39.20
27114;DHT22;14648;49.730;8.614;2023-07-20T12:21:40;26.00;38.80
27114;DHT22;14648;49.730;8.614;2023-07-20T12:24:08;25.90;38.70
27114;DHT22;14648;49.730;8.614;2023-07-20T12:26:35;25.90;38.60
27114;DHT22;14648;49.730;8.614;2023-07-20T12:29:01;25.80;38.70
27114;DHT22;14648;49.730;8.614;2023-07-20T12:31:29;25.80;38.40
27114;DHT22;14648;49.730;8.614;2023-07-20T12:33:57;25.70;38.20
27114;DHT22;14648;49.730;8.614;2023-07-20T12:36:24;25.60;38.00
27114;DHT22;14648;49.730;8.614;2023-07-20T12:38:50;25.50;38.10
27114;DHT22;14648;49.730;8.614;2023-07-20T12:41:16;25.40;38.20
27114;DHT22;14648;49.730;8.614;2023-07-20T12:43:42;25.20;38.40
27114;DHT22;14648;49.730;8.614;2023-07-20T12:46:08;25.10;38.60
27114;DHT22;14648;49.730;8.614;2023-07-20T12:48:36;25.00;38.30
27114;DHT22;14648;49.730;8.614;2023-07-20T12:51:06;24.90;38.50
27114;DHT22;14648;49.730;8.614;2023-07-20T12:53:33;24.90;38.70
27114;DHT22;14648;49.730;8.614;2023-07-20T12:56:02;24.80;38.60
27114;DHT22;14648;49.730;8.614;2023-07-20T12:58:28;24.80;38.50
27114;DHT22;14648;49.730;8.614;2023-07-20T13:00:54;24.70;38.50
27114;DHT22;14648;49.730;8.614;2023-07-20T13:03:20;24.70;38.60
27114;DHT22;14648;49.730;8.614;2023-07-20T13:05:46;24.70;38.50
27114;DHT22;14648;49.730;8.614;2023-07-20T13:08:15;24.70;38.60
27114;DHT22;14648;49.730;8.614;2023-07-20T13:10:41;24.60;38.70
27114;DHT22;14648;49.730;8.614;2023-07-20T13:13:08;24.60;38.70
27114;DHT22;14648;49.730;8.614;2023-07-20T13:15:42;24.60;38.80
27114;DHT22;14648;49.730;8.614;2023-07-20T13:18:08;24.70;38.60
27114;DHT22;14648;49.730;8.614;2023-07-20T13:20:34;24.70;38.70
27114;DHT22;14648;49.730;8.614;2023-07-20T13:23:00;24.90;38.50
27114;DHT22;14648;49.730;8.614;2023-07-20T13:25:25;25.00;38.50
27114;DHT22;14648;49.730;8.614;2023-07-20T13:27:51;25.00;38.50
27114;DHT22;14648;49.730;8.614;2023-07-20T13:30:17;25.10;38.40
27114;DHT22;14648;49.730;8.614;2023-07-20T13:32:44;25.10;38.50
27114;DHT22;14648;49.730;8.614;2023-07-20T13:35:13;25.20;38.40
27114;DHT22;14648;49.730;8.614;2023-07-20T13:37:39;25.20;38.30
27114;DHT22;14648;49.730;8.614;2023-07-20T13:40:06;25.10;38.20
27114;DHT22;14648;49.730;8.614;2023-07-20T13:42:34;25.20;38.60
27114;DHT22;14648;49.730;8.614;2023-07-20T13:45:00;25.20;38.60
27114;DHT22;14648;49.730;8.614;2023-07-20T13:47:26;25.30;38.50
27114;DHT22;14648;49.730;8.614;2023-07-20T13:49:52;25.60;38.30
27114;DHT22;14648;49.730;8.614;2023-07-20T13:52:18;25.90;37.90
27114;DHT22;14648;49.730;8.614;2023-07-20T13:54:44;26.20;38.00
27114;DHT22;14648;49.730;8.614;2023-07-20T13:57:09;26.30;37.80
27114;DHT22;14648;49.730;8.614;2023-07-20T13:59:35;26.40;37.70
27114;DHT22;14648;49.730;8.614;2023-07-20T14:02:01;26.30;37.40
27114;DHT22;14648;49.730;8.614;2023-07-20T14:04:26;26.30;37.30
27114;DHT22;14648;49.730;8.614;2023-07-20T14:06:52;26.30;37.20
27114;DHT22;14648;49.730;8.614;2023-07-20T14:09:18;26.20;37.00
27114;DHT22;14648;49.730;8.614;2023-07-20T14:11:43;26.20;37.00
27114;DHT22;14648;49.730;8.614;2023-07-20T14:14:09;26.20;37.10
27114;DHT22;14648;49.730;8.614;2023-07-20T14:16:35;26.20;37.20
27114;DHT22;14648;49.730;8.614;2023-07-20T14:19:00;26.20;36.90
27114;DHT22;14648;49.730;8.614;2023-07-20T14:21:26;26.20;36.80
27114;DHT22;14648;49.730;8.614;2023-07-20T14:23:52;26.20;37.00
27114;DHT22;14648;49.730;8.614;2023-07-20T14:26:18;26.30;36.90
27114;DHT22;14648;49.730;8.614;2023-07-20T14:28:44;26.50;36.70
27114;DHT22;14648;49.730;8.614;2023-07-20T14:31:10;26.80;36.50
27114;DHT22;14648;49.730;8.614;2023-07-20T14:33:36;27.10;36.50
27114;DHT22;14648;49.730;8.614;2023-07-20T14:36:02;27.30;36.10
27114;DHT22;14648;49.730;8.614;2023-07-20T14:38:30;27.60;35.80
27114;DHT22;14648;49.730;8.614;2023-07-20T14:40:56;27.80;35.30
27114;DHT22;14648;49.730;8.614;2023-07-20T14:43:22;28.10;35.30
27114;DHT22;14648;49.730;8.614;2023-07-20T14:45:48;28.20;35.10
27114;DHT22;14648;49.730;8.614;2023-07-20T14:48:13;28.30;34.70
27114;DHT22;14648;49.730;8.614;2023-07-20T14:50:39;28.30;34.70
27114;DHT22;14648;49.730;8.614;2023-07-20T14:53:05;28.20;34.70
27114;DHT22;14648;49.730;8.614;2023-07-20T14:55:31;28.10;34.70
27114;DHT22;14648;49.730;8.614;2023-07-20T14:57:56;28.10;34.60
27114;DHT22;14648;49.730;8.614;2023-07-20T15:00:22;28.00;34.20
27114;DHT22;14648;49.730;8.614;2023-07-20T15:02:48;27.80;34.20
27114;DHT22;14648;49.730;8.614;2023-07-20T15:05:20;27.80;34.20
27114;DHT22;14648;49.730;8.614;2023-07-20T15:07:47;27.80;34.30
27114;DHT22;14648;49.730;8.614;2023-07-20T15:10:13;27.80;34.30
27114;DHT22;14648;49.730;8.614;2023-07-20T15:12:39;27.90;34.20
27114;DHT22;14648;49.730;8.614;2023-07-20T15:15:09;27.90;33.80
27114;DHT22;14648;49.730;8.614;2023-07-20T15:17:36;27.90;33.60
27114;DHT22;14648;49.730;8.614;2023-07-20T15:20:04;27.90;34.50
27114;DHT22;14648;49.730;8.614;2023-07-20T15:22:32;27.90;33.60
27114;DHT22;14648;49.730;8.614;2023-07-20T15:24:58;28.00;34.30
27114;DHT22;14648;49.730;8.614;2023-07-20T15:27:24;28.00;33.90
27114;DHT22;14648;49.730;8.614;2023-07-20T15:29:50;27.80;33.40
27114;DHT22;14648;49.730;8.614;2023-07-20T15:32:17;27.70;33.20
27114;DHT22;14648;49.730;8.614;2023-07-20T15:34:44;27.50;33.20
27114;DHT22;14648;49.730;8.614;2023-07-20T15:37:11;27.30;33.40
27114;DHT22;14648;49.730;8.614;2023-07-20T15:39:37;27.30;33.60
27114;DHT22;14648;49.730;8.614;2023-07-20T15:42:03;27.30;33.70
27114;DHT22;14648;49.730;8.614;2023-07-20T15:44:29;27.30;33.90